createdAt,value
2022-10-09T00:01:22.737Z,100231.00
2022-10-09T00:03:51.705Z,100239.56
2022-10-09T00:06:22.414Z,100243.19
2022-10-09T00:08:50.028Z,100212.00
2022-10-09T00:11:20.798Z,100241.00
2022-10-09T00:13:51.046Z,100249.81
2022-10-09T00:16:19.554Z,100242.69
2022-10-09T00:18:47.814Z,100215.59
2022-10-09T00:21:32.155Z,100226.50
2022-10-09T00:24:02.352Z,100223.06
2022-10-09T00:26:31.581Z,100225.59
2022-10-09T00:28:59.020Z,100186.63
2022-10-09T00:31:26.772Z,100191.56
2022-10-09T00:33:55.309Z,100198.56
2022-10-09T00:36:25.133Z,100224.41
2022-10-09T00:38:54.475Z,100220.19
2022-10-09T00:41:25.377Z,100193.50
2022-10-09T00:43:56.534Z,100204.44
2022-10-09T00:46:35.859Z,100206.28
2022-10-09T00:49:25.849Z,100156.44
2022-10-09T00:51:56.739Z,100178.56
2022-10-09T00:54:31.888Z,100187.63
2022-10-09T00:57:00.161Z,100173.78
2022-10-09T00:59:28.172Z,100163.91
2022-10-09T01:01:55.429Z,100190.84
2022-10-09T01:04:23.005Z,100162.41
2022-10-09T01:06:56.128Z,100194.38
2022-10-09T01:09:49.625Z,100189.91
2022-10-09T01:12:22.563Z,100192.00
2022-10-09T01:15:21.047Z,100192.16
2022-10-09T01:18:21.548Z,100211.53
2022-10-09T01:20:59.307Z,100198.72
2022-10-09T01:23:42.035Z,100199.56
2022-10-09T01:26:27.523Z,100187.53
2022-10-09T01:28:59.394Z,100181.44
2022-10-09T01:31:27.820Z,100174.56
2022-10-09T01:34:25.884Z,100192.09
2022-10-09T01:36:54.946Z,100155.50
2022-10-09T01:39:24.197Z,100179.09
2022-10-09T01:41:55.119Z,100151.41
2022-10-09T01:44:31.108Z,100193.72
2022-10-09T01:46:59.686Z,100158.28
2022-10-09T01:49:52.048Z,100169.59
2022-10-09T01:52:27.361Z,100156.13
2022-10-09T01:55:03.768Z,100174.09
2022-10-09T01:57:47.095Z,100156.44
2022-10-09T02:00:17.981Z,100142.13
2022-10-09T02:02:48.593Z,100128.31
2022-10-09T02:05:22.562Z,100155.97
2022-10-09T02:07:52.532Z,100140.94
2022-10-09T02:10:22.479Z,100141.25
2022-10-09T02:12:58.138Z,100165.69
2022-10-09T02:15:31.230Z,100170.53
2022-10-09T02:18:05.230Z,100139.78
2022-10-09T02:20:36.563Z,100156.00
2022-10-09T02:23:08.001Z,100118.22
2022-10-09T02:25:37.932Z,100141.34
2022-10-09T02:28:05.896Z,100131.41
2022-10-09T02:30:46.568Z,100107.75
2022-10-09T02:33:13.977Z,100107.06
2022-10-09T02:35:41.542Z,100124.16
2022-10-09T02:38:09.045Z,100134.56
2022-10-09T02:40:36.123Z,100133.00
2022-10-09T02:43:05.238Z,100133.38
2022-10-09T02:45:34.958Z,100105.28
2022-10-09T02:48:02.255Z,100130.53
2022-10-09T02:50:29.517Z,100115.75
2022-10-09T02:57:29.256Z,100124.22
2022-10-09T02:59:56.354Z,100088.56
2022-10-09T03:02:24.337Z,100091.44
2022-10-09T03:04:53.841Z,100139.34
2022-10-09T03:07:23.627Z,100121.94
2022-10-09T03:09:50.919Z,100103.06
2022-10-09T03:12:21.417Z,100105.75
2022-10-09T03:14:49.890Z,100088.81
2022-10-09T03:17:17.461Z,100127.22
2022-10-09T03:19:44.665Z,100111.09
2022-10-09T03:22:11.861Z,100090.50
2022-10-09T03:24:42.592Z,100078.09
2022-10-09T03:27:09.858Z,100087.72
2022-10-09T03:29:37.096Z,100096.97
2022-10-09T03:32:04.298Z,100065.28
2022-10-09T03:34:32.052Z,100107.84
2022-10-09T03:36:59.240Z,100082.09
2022-10-09T03:39:26.648Z,100050.69
2022-10-09T03:41:54.030Z,100072.63
2022-10-09T03:44:28.299Z,100041.72
2022-10-09T03:46:58.680Z,100072.63
2022-10-09T03:49:26.155Z,100073.16
2022-10-09T03:51:53.536Z,100090.41
2022-10-09T03:54:22.006Z,100090.56
2022-10-09T03:56:49.253Z,100051.44
2022-10-09T03:59:16.617Z,100075.16
2022-10-09T04:01:44.199Z,100052.59
2022-10-09T04:04:12.738Z,100082.19
2022-10-09T04:06:40.057Z,100076.84
2022-10-09T04:09:10.409Z,100036.22
2022-10-09T04:11:37.876Z,100056.47
2022-10-09T04:14:08.419Z,100064.31
2022-10-09T04:16:36.054Z,100055.13
2022-10-09T04:19:03.478Z,100053.19
2022-10-09T04:21:30.994Z,100034.25
2022-10-09T04:23:59.686Z,100032.03
2022-10-09T04:26:27.026Z,100078.00
2022-10-09T04:28:54.806Z,100043.75
2022-10-09T04:31:22.232Z,100035.78
2022-10-09T04:34:16.677Z,100062.66
2022-10-09T04:36:44.019Z,100056.66
2022-10-09T04:39:11.431Z,100012.38
2022-10-09T04:41:39.204Z,100003.00
2022-10-09T04:44:07.003Z,100036.50
2022-10-09T04:46:39.897Z,100015.63
2022-10-09T04:49:14.798Z,100013.78
2022-10-09T04:51:45.816Z,100038.34
2022-10-09T04:54:13.477Z,100046.63
2022-10-09T04:56:40.691Z,100024.69
2022-10-09T04:59:07.916Z,100025.47
2022-10-09T05:01:38.269Z,100003.00
2022-10-09T05:04:08.795Z,100022.84
2022-10-09T05:06:36.142Z,100014.94
2022-10-09T05:09:03.910Z,100033.13
2022-10-09T05:11:31.358Z,100028.63
2022-10-09T05:14:01.276Z,100028.19
2022-10-09T05:16:37.658Z,100013.81
2022-10-09T05:19:17.017Z,100009.50
2022-10-09T05:21:44.339Z,99986.53
2022-10-09T05:24:19.833Z,99991.69
2022-10-09T05:26:47.293Z,100022.41
2022-10-09T05:29:14.451Z,100008.53
2022-10-09T05:31:49.154Z,99993.25
2022-10-09T05:34:17.243Z,100036.81
2022-10-09T05:36:54.318Z,99992.75
2022-10-09T05:39:21.695Z,100019.41
2022-10-09T05:41:53.276Z,99986.88
2022-10-09T05:44:26.554Z,100014.38
2022-10-09T05:47:21.122Z,100011.69
2022-10-09T05:50:06.343Z,100007.53
2022-10-09T05:53:08.910Z,100001.94
2022-10-09T05:55:34.865Z,100009.34
2022-10-09T05:58:04.836Z,99989.22
2022-10-09T06:00:37.679Z,100020.97
2022-10-09T06:03:48.304Z,100006.13
2022-10-09T06:06:23.803Z,100019.34
2022-10-09T06:08:54.883Z,100010.69
2022-10-09T06:11:37.233Z,99993.34
2022-10-09T06:14:09.345Z,100024.97
2022-10-09T06:16:42.198Z,99987.56
2022-10-09T06:19:12.760Z,100025.78
2022-10-09T06:21:40.379Z,100014.22
2022-10-09T06:24:08.618Z,100001.81
2022-10-09T06:26:35.985Z,100017.56
2022-10-09T06:29:03.910Z,100019.78
2022-10-09T06:31:33.956Z,99997.84
2022-10-09T06:34:03.959Z,99984.66
2022-10-09T06:36:34.478Z,100004.06
2022-10-09T06:39:05.740Z,100005.97
2022-10-09T06:41:34.186Z,99982.81
2022-10-09T06:44:16.866Z,99986.00
2022-10-09T06:46:50.302Z,100019.59
2022-10-09T06:49:18.045Z,99992.16
2022-10-09T06:51:46.856Z,99976.97
2022-10-09T06:54:17.634Z,99976.75
2022-10-09T06:56:45.346Z,99981.50
2022-10-09T06:59:13.511Z,99969.91
2022-10-09T07:01:40.920Z,99971.38
2022-10-09T07:04:15.608Z,99990.88
2022-10-09T07:06:48.008Z,99977.59
2022-10-09T07:09:16.612Z,99989.16
2022-10-09T07:11:49.529Z,99983.00
2022-10-09T07:14:17.533Z,99978.97
2022-10-09T07:16:46.920Z,99985.13
2022-10-09T07:19:16.121Z,99994.47
2022-10-09T07:21:45.672Z,99961.47
2022-10-09T07:24:14.253Z,99957.63
2022-10-09T07:26:44.287Z,99945.75
2022-10-09T07:29:14.888Z,99962.56
2022-10-09T07:31:42.176Z,99951.06
2022-10-09T07:34:09.592Z,99928.22
2022-10-09T07:36:38.083Z,99928.13
2022-10-09T07:39:06.076Z,99918.38
2022-10-09T07:41:35.367Z,99935.84
2022-10-09T07:44:04.937Z,99918.22
2022-10-09T07:46:34.012Z,99925.38
2022-10-09T07:49:02.548Z,99930.56
2022-10-09T07:51:30.885Z,99916.91
2022-10-09T07:54:02.460Z,99930.06
2022-10-09T07:56:35.512Z,99908.50
2022-10-09T07:59:06.024Z,99932.25
2022-10-09T08:01:35.587Z,99937.09
2022-10-09T08:04:08.800Z,99922.47
2022-10-09T08:06:36.581Z,99914.50
2022-10-09T08:09:07.587Z,99916.03
2022-10-09T08:11:35.555Z,99942.63
2022-10-09T08:14:04.165Z,99928.75
2022-10-09T08:16:32.546Z,99920.81
2022-10-09T08:19:01.675Z,99928.09
2022-10-09T08:21:29.812Z,99932.34
2022-10-09T08:23:59.536Z,99938.59
2022-10-09T08:26:29.646Z,99913.66
2022-10-09T08:29:10.039Z,99916.09
2022-10-09T08:31:40.386Z,99930.94
2022-10-09T08:34:10.830Z,99940.16
2022-10-09T08:36:38.185Z,99923.25
2022-10-09T08:39:17.609Z,99896.91
2022-10-09T08:41:54.334Z,99901.88
2022-10-09T08:44:31.955Z,99904.81
2022-10-09T08:47:11.473Z,99935.00
2022-10-09T08:49:54.256Z,99939.69
2022-10-09T08:52:24.364Z,99921.59
2022-10-09T08:54:55.640Z,99899.81
2022-10-09T08:57:23.750Z,99910.16
2022-10-09T08:59:53.830Z,99926.47
2022-10-09T09:02:36.674Z,99932.38
2022-10-09T09:05:44.849Z,99878.69
2022-10-09T09:08:27.549Z,99927.13
2022-10-09T09:11:21.580Z,99919.47
2022-10-09T09:13:58.505Z,99902.63
2022-10-09T09:16:41.411Z,99902.56
2022-10-09T09:19:43.805Z,99909.56
2022-10-09T09:22:14.536Z,99896.31
2022-10-09T09:24:51.622Z,99891.31
2022-10-09T09:27:21.819Z,99858.66
2022-10-09T09:29:59.573Z,99885.97
2022-10-09T09:32:29.693Z,99894.38
2022-10-09T09:35:43.389Z,99872.91
2022-10-09T09:38:10.685Z,99889.66
2022-10-09T09:40:38.934Z,99904.47
2022-10-09T09:43:24.999Z,99871.09
2022-10-09T09:45:57.992Z,99879.53
2022-10-09T09:48:36.537Z,99874.03
2022-10-09T09:51:28.040Z,99868.16
2022-10-09T09:54:06.848Z,99868.94
2022-10-09T09:57:10.268Z,99879.00
2022-10-09T09:59:38.650Z,99852.38
2022-10-09T10:02:16.227Z,99875.84
2022-10-09T10:05:17.602Z,99873.69
2022-10-09T10:07:44.884Z,99862.19
2022-10-09T10:10:24.963Z,99834.00
2022-10-09T10:12:56.459Z,99862.44
2022-10-09T10:15:26.591Z,99865.41
2022-10-09T10:18:12.631Z,99839.69
2022-10-09T10:20:49.270Z,99845.09
2022-10-09T10:23:24.443Z,99857.31
2022-10-09T10:25:57.340Z,99855.78
2022-10-09T10:28:36.047Z,99851.69
2022-10-09T10:31:07.983Z,99861.06
2022-10-09T10:33:37.677Z,99846.69
2022-10-09T10:36:10.349Z,99860.03
2022-10-09T10:38:53.053Z,99856.94
2022-10-09T10:41:36.800Z,99866.31
2022-10-09T10:44:33.944Z,99859.47
2022-10-09T10:47:14.815Z,99833.19
2022-10-09T10:49:42.295Z,99845.78
2022-10-09T10:52:57.224Z,99842.81
2022-10-09T10:55:40.879Z,99844.50
2022-10-09T10:58:28.425Z,99815.28
2022-10-09T11:01:14.509Z,99846.34
2022-10-09T11:04:08.039Z,99833.31
2022-10-09T11:06:54.062Z,99829.28
2022-10-09T11:09:32.601Z,99813.75
2022-10-09T11:12:24.665Z,99800.44
2022-10-09T11:15:48.313Z,99828.72
2022-10-09T11:18:45.097Z,99811.22
2022-10-09T11:21:40.809Z,99817.66
2022-10-09T11:24:49.011Z,99823.53
2022-10-09T11:27:33.728Z,99824.81
2022-10-09T11:30:05.965Z,99818.09
2022-10-09T11:35:15.909Z,99829.97
2022-10-09T11:40:37.662Z,99827.31
2022-10-09T11:43:26.531Z,99835.69
2022-10-09T11:46:02.676Z,99801.22
2022-10-09T11:48:38.025Z,99816.38
2022-10-09T11:51:50.890Z,99834.53
2022-10-09T11:54:23.199Z,99821.94
2022-10-09T11:56:53.873Z,99836.59
2022-10-09T11:59:30.546Z,99836.13
2022-10-09T12:02:23.785Z,99817.38
2022-10-09T12:04:55.396Z,99816.34
2022-10-09T12:07:28.240Z,99860.38
2022-10-09T12:10:23.880Z,99838.56
2022-10-09T12:13:06.977Z,99857.66
2022-10-09T12:15:40.151Z,99845.19
2022-10-09T12:18:23.462Z,99843.06
2022-10-09T12:20:54.922Z,99821.25
2022-10-09T12:23:27.631Z,99836.66
2022-10-09T12:25:56.477Z,99827.41
2022-10-09T12:28:52.235Z,99814.97
2022-10-09T12:31:33.293Z,99848.78
2022-10-09T12:34:52.132Z,99834.56
2022-10-09T12:37:22.158Z,99823.50
2022-10-09T12:39:50.424Z,99833.00
2022-10-09T12:42:25.440Z,99835.41
2022-10-09T12:44:55.569Z,99831.00
2022-10-09T12:47:29.614Z,99834.06
2022-10-09T12:50:05.076Z,99832.25
2022-10-09T12:52:33.337Z,99857.19
2022-10-09T12:55:04.865Z,99856.34
2022-10-09T12:57:33.108Z,99865.16
2022-10-09T13:00:00.638Z,99854.91
2022-10-09T13:02:28.955Z,99827.41
2022-10-09T13:05:02.411Z,99858.38
2022-10-09T13:07:32.760Z,99870.84
2022-10-09T13:10:04.650Z,99850.41
2022-10-09T13:12:40.439Z,99861.97
2022-10-09T13:15:32.849Z,99879.53
2022-10-09T13:18:14.051Z,99901.56
2022-10-09T13:20:41.503Z,99900.28
2022-10-09T13:23:28.969Z,99895.31
2022-10-09T13:25:59.981Z,99889.53
2022-10-09T13:28:31.890Z,99921.94
2022-10-09T13:31:07.634Z,99885.31
2022-10-09T13:33:41.381Z,99916.44
2022-10-09T13:36:12.342Z,99924.59
2022-10-09T13:38:39.926Z,99927.22
2022-10-09T13:41:13.829Z,99944.50
2022-10-09T13:43:42.677Z,99932.72
2022-10-09T13:46:10.297Z,99912.69
2022-10-09T13:48:38.200Z,99921.50
2022-10-09T13:51:06.686Z,99918.25
2022-10-09T13:53:35.895Z,99916.03
2022-10-09T13:56:04.108Z,99928.66
2022-10-09T13:58:31.811Z,99908.00
2022-10-09T14:00:59.380Z,99935.97
2022-10-09T14:03:27.834Z,99928.69
2022-10-09T14:06:00.091Z,99913.19
2022-10-09T14:08:27.557Z,99910.75
2022-10-09T14:10:55.322Z,99922.84
2022-10-09T14:13:23.520Z,99903.16
2022-10-09T14:15:53.259Z,99915.41
2022-10-09T14:18:20.468Z,99936.16
2022-10-09T14:20:47.996Z,99925.56
2022-10-09T14:23:15.419Z,99916.34
2022-10-09T14:25:42.657Z,99923.69
2022-10-09T14:28:10.874Z,99943.03
2022-10-09T14:30:43.757Z,99922.44
2022-10-09T14:33:12.995Z,99946.75
2022-10-09T14:35:40.281Z,99919.47
2022-10-09T14:38:09.943Z,99947.47
2022-10-09T14:40:43.537Z,99940.00
2022-10-09T14:43:12.324Z,99930.50
2022-10-09T14:45:40.904Z,99944.44
2022-10-09T14:48:08.310Z,99969.59
2022-10-09T14:50:36.565Z,99977.06
2022-10-09T14:53:04.315Z,99966.69
2022-10-09T14:55:34.452Z,99958.25
2022-10-09T14:58:01.900Z,99952.16
2022-10-09T15:00:29.611Z,99953.28
2022-10-09T15:02:59.707Z,99980.00
2022-10-09T15:05:41.482Z,99976.47
2022-10-09T15:08:31.441Z,99973.72
2022-10-09T15:10:59.135Z,99988.81
2022-10-09T15:13:26.789Z,99991.06
2022-10-09T15:16:02.232Z,99951.69
2022-10-09T15:18:31.704Z,99988.09
2022-10-09T15:20:59.978Z,99977.75
2022-10-09T15:23:37.009Z,99991.56
2022-10-09T15:26:09.175Z,99982.25
2022-10-09T15:28:41.784Z,99984.97
2022-10-09T15:31:28.749Z,99998.69
2022-10-09T15:33:58.974Z,100000.63
2022-10-09T15:36:27.567Z,99981.84
2022-10-09T15:38:55.149Z,100008.22
2022-10-09T15:41:26.608Z,100007.00
2022-10-09T15:43:58.928Z,100013.06
2022-10-09T15:46:55.866Z,99999.63
2022-10-09T15:51:59.416Z,99976.94
2022-10-09T15:53:22.255Z,100010.72
2022-10-09T15:56:07.884Z,100040.88
2022-10-09T15:58:38.129Z,99987.34
2022-10-09T16:01:09.634Z,100013.94
2022-10-09T16:03:39.235Z,100013.75
2022-10-09T16:06:13.897Z,99982.69
2022-10-09T16:08:45.584Z,100002.19
2022-10-09T16:11:18.006Z,100003.78
2022-10-09T16:13:48.412Z,100024.94
2022-10-09T16:16:21.857Z,100025.13
2022-10-09T16:18:49.967Z,100015.06
2022-10-09T16:21:20.188Z,100012.50
2022-10-09T16:23:48.650Z,99993.06
2022-10-09T16:26:18.752Z,100014.03
2022-10-09T16:28:47.681Z,99996.84
2022-10-09T16:31:26.287Z,100031.88
2022-10-09T16:33:56.681Z,100009.59
2022-10-09T16:36:24.339Z,100000.22
2022-10-09T16:39:02.685Z,100029.69
2022-10-09T16:41:31.024Z,100012.78
2022-10-09T16:44:00.446Z,100009.03
2022-10-09T16:46:29.152Z,100039.25
2022-10-09T16:48:58.542Z,100026.94
2022-10-09T16:51:34.696Z,100029.09
2022-10-09T16:54:07.319Z,100019.72
2022-10-09T16:56:40.679Z,100010.72
2022-10-09T16:59:12.010Z,100013.81
2022-10-09T17:01:46.831Z,100029.75
2022-10-09T17:04:17.421Z,100051.38
2022-10-09T17:06:55.587Z,100019.25
2022-10-09T17:09:26.938Z,100008.72
2022-10-09T17:11:55.180Z,100017.53
2022-10-09T17:15:41.699Z,100042.94
2022-10-09T17:18:12.161Z,100044.16
2022-10-09T17:20:41.380Z,100026.00
2022-10-09T17:23:10.682Z,100017.75
2022-10-09T17:25:46.128Z,100064.59
2022-10-09T17:28:15.129Z,100024.22
2022-10-09T17:30:42.375Z,100059.16
2022-10-09T17:33:19.648Z,100034.44
2022-10-09T17:35:47.781Z,100039.13
2022-10-09T17:38:17.812Z,100026.84
2022-10-09T17:40:46.684Z,100025.81
2022-10-09T17:43:16.504Z,100036.34
2022-10-09T17:45:44.224Z,100027.25
2022-10-09T17:48:15.108Z,100029.66
2022-10-09T17:50:54.621Z,100052.50
2022-10-09T17:53:27.418Z,100051.53
2022-10-09T17:55:58.664Z,100071.44
2022-10-09T17:58:26.845Z,100033.66
2022-10-09T18:00:54.457Z,100034.03
2022-10-09T18:03:23.698Z,100071.91
2022-10-09T18:05:53.434Z,100029.53
2022-10-09T18:08:20.667Z,100067.34
2022-10-09T18:11:00.508Z,100059.22
2022-10-09T18:13:29.036Z,100046.72
2022-10-09T18:15:56.551Z,100052.38
2022-10-09T18:18:24.088Z,100047.41
2022-10-09T18:20:51.576Z,100043.25
2022-10-09T18:23:22.748Z,100034.06
2022-10-09T18:25:50.270Z,100049.41
2022-10-09T18:28:19.587Z,100068.78
2022-10-09T18:30:47.212Z,100067.47
2022-10-09T18:33:14.904Z,100060.72
2022-10-09T18:35:43.514Z,100069.03
2022-10-09T18:38:11.479Z,100095.22
2022-10-09T18:40:45.760Z,100109.97
2022-10-09T18:43:14.138Z,100092.75
2022-10-09T18:45:45.192Z,100056.31
2022-10-09T18:48:14.675Z,100098.13
2022-10-09T18:50:44.366Z,100082.75
2022-10-09T18:53:12.240Z,100100.19
2022-10-09T18:55:42.529Z,100089.84
2022-10-09T18:58:10.873Z,100083.00
2022-10-09T19:00:39.607Z,100094.28
2022-10-09T19:03:08.146Z,100129.38
2022-10-09T19:05:36.282Z,100132.09
2022-10-09T19:08:04.197Z,100081.94
2022-10-09T19:10:31.622Z,100120.19
2022-10-09T19:13:00.365Z,100111.25
2022-10-09T19:15:27.649Z,100086.34
2022-10-09T19:17:54.911Z,100083.13
2022-10-09T19:20:22.170Z,100109.84
2022-10-09T19:22:49.664Z,100102.50
2022-10-09T19:25:17.204Z,100086.16
2022-10-09T19:27:44.531Z,100099.47
2022-10-09T19:30:12.487Z,100102.34
2022-10-09T19:32:39.796Z,100111.47
2022-10-09T19:35:08.102Z,100104.28
2022-10-09T19:37:35.837Z,100135.53
2022-10-09T19:40:02.924Z,100123.19
2022-10-09T19:42:33.632Z,100128.34
2022-10-09T19:45:01.312Z,100107.25
2022-10-09T19:47:29.009Z,100134.66
2022-10-09T19:49:56.234Z,100137.84
2022-10-09T19:52:24.513Z,100121.47
2022-10-09T19:55:28.864Z,100138.81
2022-10-09T19:57:58.480Z,100116.50
2022-10-09T20:00:28.265Z,100120.56
2022-10-09T20:02:57.673Z,100119.84
2022-10-09T20:05:29.413Z,100133.91
2022-10-09T20:07:57.475Z,100127.31
2022-10-09T20:10:26.212Z,100115.31
2022-10-09T20:12:55.465Z,100145.09
2022-10-09T20:15:23.145Z,100129.75
2022-10-09T20:17:50.284Z,100124.91
2022-10-09T20:20:18.140Z,100115.09
2022-10-09T20:22:45.383Z,100109.19
2022-10-09T20:25:12.786Z,100110.13
2022-10-09T20:27:41.140Z,100141.63
2022-10-09T20:30:09.063Z,100105.88
2022-10-09T20:32:40.062Z,100133.69
2022-10-09T20:35:10.329Z,100132.09
2022-10-09T20:37:37.808Z,100103.06
2022-10-09T20:40:05.923Z,100100.44
2022-10-09T20:42:33.236Z,100116.78
2022-10-09T20:45:01.984Z,100116.31
2022-10-09T20:47:29.316Z,100152.66
2022-10-09T20:49:59.238Z,100155.00
2022-10-09T20:52:26.600Z,100147.13
2022-10-09T20:54:55.553Z,100137.91
2022-10-09T20:57:22.993Z,100140.44
2022-10-09T20:59:50.656Z,100110.19
2022-10-09T21:02:17.954Z,100149.19
2022-10-09T21:04:46.801Z,100124.66
2022-10-09T21:07:14.037Z,100130.06
2022-10-09T21:09:41.259Z,100134.97
2022-10-09T21:12:08.700Z,100112.88
2022-10-09T21:14:38.662Z,100106.28
2022-10-09T21:17:06.014Z,100121.34
2022-10-09T21:19:34.012Z,100116.47
2022-10-09T21:22:01.380Z,100130.94
2022-10-09T21:24:34.701Z,100136.88
2022-10-09T21:27:02.812Z,100146.19
2022-10-09T21:29:30.188Z,100136.22
2022-10-09T21:31:57.530Z,100154.72
2022-10-09T21:34:27.326Z,100151.81
2022-10-09T21:37:19.827Z,100148.06
2022-10-09T21:39:42.893Z,100158.59
2022-10-09T21:42:10.107Z,100166.59
2022-10-09T21:44:37.595Z,100159.47
2022-10-09T21:47:05.241Z,100161.88
2022-10-09T21:49:32.770Z,100157.47
2022-10-09T21:52:00.256Z,100157.47
2022-10-09T21:54:27.897Z,100160.16
2022-10-09T21:56:55.427Z,100180.09
2022-10-09T21:59:22.637Z,100196.19
2022-10-09T22:01:50.664Z,100172.56
2022-10-09T22:04:20.478Z,100161.84
2022-10-09T22:06:48.298Z,100187.13
2022-10-09T22:09:15.607Z,100201.13
2022-10-09T22:11:44.846Z,100184.19
2022-10-09T22:14:14.277Z,100201.66
2022-10-09T22:16:41.900Z,100196.75
2022-10-09T22:19:09.390Z,100210.72
2022-10-09T22:21:36.778Z,100191.41
2022-10-09T22:24:05.463Z,100198.25
2022-10-09T22:26:32.810Z,100217.19
2022-10-09T22:29:00.890Z,100189.31
2022-10-09T22:31:29.168Z,100208.59
2022-10-09T22:34:02.375Z,100187.41
2022-10-09T22:36:32.317Z,100220.47
2022-10-09T22:39:02.145Z,100222.53
2022-10-09T22:41:30.850Z,100231.19
2022-10-09T22:44:01.007Z,100236.19
2022-10-09T22:46:31.548Z,100210.09
2022-10-09T22:48:58.951Z,100229.25
2022-10-09T22:51:27.897Z,100228.31
2022-10-09T22:54:00.521Z,100215.44
2022-10-09T22:56:31.355Z,100253.91
2022-10-09T22:58:59.099Z,100248.56
2022-10-09T23:01:39.055Z,100245.59
2022-10-09T23:04:11.810Z,100252.66
2022-10-09T23:06:40.355Z,100258.22
2022-10-09T23:09:10.844Z,100228.75
2022-10-09T23:11:38.009Z,100243.59
2022-10-09T23:14:06.894Z,100271.97
2022-10-09T23:16:34.767Z,100248.47
2022-10-09T23:19:06.450Z,100263.06
2022-10-09T23:21:35.757Z,100272.41
2022-10-09T23:28:09.642Z,100270.69
2022-10-09T23:30:37.525Z,100260.38
2022-10-09T23:33:06.292Z,100259.59
2022-10-09T23:35:33.749Z,100279.69
2022-10-09T23:38:00.894Z,100264.78
2022-10-09T23:40:28.315Z,100255.28
2022-10-09T23:42:55.775Z,100271.22
2022-10-09T23:45:23.094Z,100288.50
2022-10-09T23:47:50.212Z,100298.84
2022-10-09T23:50:17.620Z,100263.50
2022-10-09T23:52:45.040Z,100279.69
2022-10-09T23:55:12.309Z,100277.16
2022-10-09T23:57:39.848Z,100300.97
